sensor_id;sensor_type;location;lat;lon;timestamp;temperature;humidity
3067;DHT22;1544;48.834;9.194;2023-02-13T00:02:15;3.60;50.00
3067;DHT22;1544;48.834;9.194;2023-02-13T00:04:50;3.50;50.10
3067;DHT22;1544;48.834;9.194;2023-02-13T00:07:25;3.50;50.30
3067;DHT22;1544;48.834;9.194;2023-02-13T00:10:00;3.50;50.30
3067;DHT22;1544;48.834;9.194;2023-02-13T00:12:34;3.40;50.30
3067;DHT22;1544;48.834;9.194;2023-02-13T00:15:09;3.40;50.40
3067;DHT22;1544;48.834;9.194;2023-02-13T00:17:44;3.40;50.50
3067;DHT22;1544;48.834;9.194;2023-02-13T00:20:19;3.30;50.60
3067;DHT22;1544;48.834;9.194;2023-02-13T00:22:54;3.30;50.90
3067;DHT22;1544;48.834;9.194;2023-02-13T00:25:29;3.30;51.00
3067;DHT22;1544;48.834;9.194;2023-02-13T00:28:04;3.20;51.00
3067;DHT22;1544;48.834;9.194;2023-02-13T00:30:39;3.20;51.00
3067;DHT22;1544;48.834;9.194;2023-02-13T00:33:14;4.10;52.00
3067;DHT22;1544;48.834;9.194;2023-02-13T00:35:49;3.20;51.30
3067;DHT22;1544;48.834;9.194;2023-02-13T00:38:24;3.10;51.10
3067;DHT22;1544;48.834;9.194;2023-02-13T00:40:59;3.10;51.10
3067;DHT22;1544;48.834;9.194;2023-02-13T00:43:35;3.10;51.20
3067;DHT22;1544;48.834;9.194;2023-02-13T00:46:10;3.00;51.10
3067;DHT22;1544;48.834;9.194;2023-02-13T00:48:45;3.00;51.10
3067;DHT22;1544;48.834;9.194;2023-02-13T00:51:20;3.00;50.70
3067;DHT22;1544;48.834;9.194;2023-02-13T00:53:55;2.90;50.60
3067;DHT22;1544;48.834;9.194;2023-02-13T00:56:30;2.90;50.70
3067;DHT22;1544;48.834;9.194;2023-02-13T00:59:05;2.80;50.70
3067;DHT22;1544;48.834;9.194;2023-02-13T01:01:40;2.80;50.70
3067;DHT22;1544;48.834;9.194;2023-02-13T01:04:15;2.80;50.60
3067;DHT22;1544;48.834;9.194;2023-02-13T01:06:50;2.80;50.60
3067;DHT22;1544;48.834;9.194;2023-02-13T01:09:25;2.80;50.60
3067;DHT22;1544;48.834;9.194;2023-02-13T01:12:00;2.70;50.40
3067;DHT22;1544;48.834;9.194;2023-02-13T01:14:35;2.70;50.30
3067;DHT22;1544;48.834;9.194;2023-02-13T01:17:10;2.70;50.50
3067;DHT22;1544;48.834;9.194;2023-02-13T01:19:45;2.60;50.60
3067;DHT22;1544;48.834;9.194;2023-02-13T01:22:19;2.60;50.70
3067;DHT22;1544;48.834;9.194;2023-02-13T01:24:55;2.60;50.60
3067;DHT22;1544;48.834;9.194;2023-02-13T01:27:31;2.50;50.50
3067;DHT22;1544;48.834;9.194;2023-02-13T01:30:07;2.50;50.30
3067;DHT22;1544;48.834;9.194;2023-02-13T01:32:47;2.50;50.40
3067;DHT22;1544;48.834;9.194;2023-02-13T01:35:22;2.50;50.30
3067;DHT22;1544;48.834;9.194;2023-02-13T01:37:57;2.50;50.30
3067;DHT22;1544;48.834;9.194;2023-02-13T01:40:32;2.40;50.00
3067;DHT22;1544;48.834;9.194;2023-02-13T01:43:08;2.40;50.10
3067;DHT22;1544;48.834;9.194;2023-02-13T01:45:47;2.30;50.40
3067;DHT22;1544;48.834;9.194;2023-02-13T01:48:28;2.30;51.00
3067;DHT22;1544;48.834;9.194;2023-02-13T01:51:11;2.30;51.60
3067;DHT22;1544;48.834;9.194;2023-02-13T01:54:01;2.30;52.30
3067;DHT22;1544;48.834;9.194;2023-02-13T01:56:44;2.30;52.50
3067;DHT22;1544;48.834;9.194;2023-02-13T01:59:27;2.30;52.60
3067;DHT22;1544;48.834;9.194;2023-02-13T02:02:04;2.30;52.50
3067;DHT22;1544;48.834;9.194;2023-02-13T02:04:41;2.30;52.60
3067;DHT22;1544;48.834;9.194;2023-02-13T02:07:25;2.30;52.50
3067;DHT22;1544;48.834;9.194;2023-02-13T02:10:09;2.30;52.40
3067;DHT22;1544;48.834;9.194;2023-02-13T02:12:57;2.20;52.20
3067;DHT22;1544;48.834;9.194;2023-02-13T02:15:36;2.20;52.20
3067;DHT22;1544;48.834;9.194;2023-02-13T02:18:22;2.20;52.20
3067;DHT22;1544;48.834;9.194;2023-02-13T02:24:33;2.20;52.10
3067;DHT22;1544;48.834;9.194;2023-02-13T02:30:41;2.10;51.60
3067;DHT22;1544;48.834;9.194;2023-02-13T02:43:23;1.90;51.80
3067;DHT22;1544;48.834;9.194;2023-02-13T02:46:14;1.90;52.10
3067;DHT22;1544;48.834;9.194;2023-02-13T02:49:10;1.90;52.90
3067;DHT22;1544;48.834;9.194;2023-02-13T02:52:14;1.90;53.40
3067;DHT22;1544;48.834;9.194;2023-02-13T02:54:59;2.00;54.10
3067;DHT22;1544;48.834;9.194;2023-02-13T02:57:49;2.00;54.10
3067;DHT22;1544;48.834;9.194;2023-02-13T03:00:48;2.00;53.80
3067;DHT22;1544;48.834;9.194;2023-02-13T03:03:44;1.90;53.50
3067;DHT22;1544;48.834;9.194;2023-02-13T03:07:00;1.90;53.50
3067;DHT22;1544;48.834;9.194;2023-02-13T03:09:44;1.90;53.40
3067;DHT22;1544;48.834;9.194;2023-02-13T03:12:51;1.90;53.30
3067;DHT22;1544;48.834;9.194;2023-02-13T03:15:51;1.90;53.30
3067;DHT22;1544;48.834;9.194;2023-02-13T03:18:50;1.90;53.20
3067;DHT22;1544;48.834;9.194;2023-02-13T03:21:58;1.90;53.30
3067;DHT22;1544;48.834;9.194;2023-02-13T03:31:16;1.90;53.30
3067;DHT22;1544;48.834;9.194;2023-02-13T03:34:03;1.80;53.40
3067;DHT22;1544;48.834;9.194;2023-02-13T03:42:29;1.80;53.00
3067;DHT22;1544;48.834;9.194;2023-02-13T03:48:19;1.80;52.90
3067;DHT22;1544;48.834;9.194;2023-02-13T03:51:27;1.80;53.20
3067;DHT22;1544;48.834;9.194;2023-02-13T03:54:34;1.80;53.00
3067;DHT22;1544;48.834;9.194;2023-02-13T03:57:36;1.70;52.70
3067;DHT22;1544;48.834;9.194;2023-02-13T04:00:37;1.70;52.30
3067;DHT22;1544;48.834;9.194;2023-02-13T04:06:53;1.70;52.00
3067;DHT22;1544;48.834;9.194;2023-02-13T04:09:32;1.60;51.90
3067;DHT22;1544;48.834;9.194;2023-02-13T04:12:19;1.60;52.10
3067;DHT22;1544;48.834;9.194;2023-02-13T04:15:11;1.60;52.00
3067;DHT22;1544;48.834;9.194;2023-02-13T04:17:56;1.60;51.90
3067;DHT22;1544;48.834;9.194;2023-02-13T04:20:37;1.60;51.90
3067;DHT22;1544;48.834;9.194;2023-02-13T04:23:13;1.50;51.70
3067;DHT22;1544;48.834;9.194;2023-02-13T04:25:51;1.50;51.50
3067;DHT22;1544;48.834;9.194;2023-02-13T04:28:28;1.50;51.10
3067;DHT22;1544;48.834;9.194;2023-02-13T04:31:04;1.50;50.90
3067;DHT22;1544;48.834;9.194;2023-02-13T04:33:40;1.50;50.60
3067;DHT22;1544;48.834;9.194;2023-02-13T04:36:15;1.50;50.60
3067;DHT22;1544;48.834;9.194;2023-02-13T04:38:50;1.50;50.60
3067;DHT22;1544;48.834;9.194;2023-02-13T04:41:25;1.50;50.40
3067;DHT22;1544;48.834;9.194;2023-02-13T04:44:00;1.50;50.40
3067;DHT22;1544;48.834;9.194;2023-02-13T04:46:35;1.50;50.50
3067;DHT22;1544;48.834;9.194;2023-02-13T04:49:10;1.50;50.50
3067;DHT22;1544;48.834;9.194;2023-02-13T04:51:45;1.50;50.60
3067;DHT22;1544;48.834;9.194;2023-02-13T04:54:21;2.10;51.10
3067;DHT22;1544;48.834;9.194;2023-02-13T04:56:56;1.40;50.50
3067;DHT22;1544;48.834;9.194;2023-02-13T04:59:31;1.50;50.50
3067;DHT22;1544;48.834;9.194;2023-02-13T05:02:06;1.40;50.30
3067;DHT22;1544;48.834;9.194;2023-02-13T05:04:41;1.50;50.30
3067;DHT22;1544;48.834;9.194;2023-02-13T05:07:16;1.40;50.20
3067;DHT22;1544;48.834;9.194;2023-02-13T05:09:51;1.40;50.10
3067;DHT22;1544;48.834;9.194;2023-02-13T05:12:27;1.40;50.00
3067;DHT22;1544;48.834;9.194;2023-02-13T05:15:03;1.40;50.10
3067;DHT22;1544;48.834;9.194;2023-02-13T05:17:43;1.40;50.00
3067;DHT22;1544;48.834;9.194;2023-02-13T05:20:18;1.40;49.80
3067;DHT22;1544;48.834;9.194;2023-02-13T05:22:53;1.40;49.80
3067;DHT22;1544;48.834;9.194;2023-02-13T05:25:47;1.40;49.80
3067;DHT22;1544;48.834;9.194;2023-02-13T05:28:22;1.30;49.50
3067;DHT22;1544;48.834;9.194;2023-02-13T05:31:16;1.30;49.50
3067;DHT22;1544;48.834;9.194;2023-02-13T05:33:51;1.30;49.40
3067;DHT22;1544;48.834;9.194;2023-02-13T05:36:26;1.30;49.50
3067;DHT22;1544;48.834;9.194;2023-02-13T05:39:01;1.30;49.40
3067;DHT22;1544;48.834;9.194;2023-02-13T05:41:36;1.20;49.60
3067;DHT22;1544;48.834;9.194;2023-02-13T05:44:11;1.30;50.00
3067;DHT22;1544;48.834;9.194;2023-02-13T05:46:47;1.20;50.20
3067;DHT22;1544;48.834;9.194;2023-02-13T05:49:23;1.20;50.20
3067;DHT22;1544;48.834;9.194;2023-02-13T05:52:02;1.20;50.40
3067;DHT22;1544;48.834;9.194;2023-02-13T05:54:37;1.20;50.00
3067;DHT22;1544;48.834;9.194;2023-02-13T05:57:13;1.20;49.80
3067;DHT22;1544;48.834;9.194;2023-02-13T05:59:48;1.20;49.80
3067;DHT22;1544;48.834;9.194;2023-02-13T06:02:22;1.20;49.80
3067;DHT22;1544;48.834;9.194;2023-02-13T06:04:57;1.20;49.80
3067;DHT22;1544;48.834;9.194;2023-02-13T06:07:32;1.10;49.70
3067;DHT22;1544;48.834;9.194;2023-02-13T06:10:07;1.10;49.60
3067;DHT22;1544;48.834;9.194;2023-02-13T06:12:42;1.10;49.50
3067;DHT22;1544;48.834;9.194;2023-02-13T06:15:17;1.10;49.50
3067;DHT22;1544;48.834;9.194;2023-02-13T06:17:52;1.00;49.20
3067;DHT22;1544;48.834;9.194;2023-02-13T06:20:27;1.10;49.20
3067;DHT22;1544;48.834;9.194;2023-02-13T06:23:02;1.00;49.10
3067;DHT22;1544;48.834;9.194;2023-02-13T06:25:37;1.00;49.00
3067;DHT22;1544;48.834;9.194;2023-02-13T06:28:12;1.00;49.00
3067;DHT22;1544;48.834;9.194;2023-02-13T06:30:47;1.00;49.00
3067;DHT22;1544;48.834;9.194;2023-02-13T06:33:23;1.00;49.00
3067;DHT22;1544;48.834;9.194;2023-02-13T06:35:58;1.00;49.00
3067;DHT22;1544;48.834;9.194;2023-02-13T06:38:33;1.00;48.90
3067;DHT22;1544;48.834;9.194;2023-02-13T06:41:08;0.90;48.60
3067;DHT22;1544;48.834;9.194;2023-02-13T06:43:43;0.90;48.60
3067;DHT22;1544;48.834;9.194;2023-02-13T06:46:18;0.90;48.70
3067;DHT22;1544;48.834;9.194;2023-02-13T06:48:53;0.90;48.90
3067;DHT22;1544;48.834;9.194;2023-02-13T06:51:28;0.90;48.90
3067;DHT22;1544;48.834;9.194;2023-02-13T06:54:03;0.90;49.10
3067;DHT22;1544;48.834;9.194;2023-02-13T06:56:38;0.90;49.20
3067;DHT22;1544;48.834;9.194;2023-02-13T06:59:13;1.00;49.50
3067;DHT22;1544;48.834;9.194;2023-02-13T07:01:48;1.00;49.50
3067;DHT22;1544;48.834;9.194;2023-02-13T07:04:23;1.00;49.70
3067;DHT22;1544;48.834;9.194;2023-02-13T07:06:58;1.00;50.00
3067;DHT22;1544;48.834;9.194;2023-02-13T07:09:33;1.00;50.20
3067;DHT22;1544;48.834;9.194;2023-02-13T07:12:08;1.10;50.40
3067;DHT22;1544;48.834;9.194;2023-02-13T07:14:43;1.10;50.60
3067;DHT22;1544;48.834;9.194;2023-02-13T07:17:17;1.10;50.60
3067;DHT22;1544;48.834;9.194;2023-02-13T07:19:52;1.10;50.60
3067;DHT22;1544;48.834;9.194;2023-02-13T07:22:29;1.20;50.60
3067;DHT22;1544;48.834;9.194;2023-02-13T07:25:04;1.20;50.60
3067;DHT22;1544;48.834;9.194;2023-02-13T07:27:39;1.20;50.60
3067;DHT22;1544;48.834;9.194;2023-02-13T07:30:16;1.30;50.80
3067;DHT22;1544;48.834;9.194;2023-02-13T07:32:51;1.30;50.80
3067;DHT22;1544;48.834;9.194;2023-02-13T07:35:26;1.30;50.70
3067;DHT22;1544;48.834;9.194;2023-02-13T07:38:01;1.30;50.60
3067;DHT22;1544;48.834;9.194;2023-02-13T07:40:36;1.40;50.70
3067;DHT22;1544;48.834;9.194;2023-02-13T07:43:12;1.40;50.70
3067;DHT22;1544;48.834;9.194;2023-02-13T07:45:47;1.50;50.70
3067;DHT22;1544;48.834;9.194;2023-02-13T07:48:22;1.50;50.60
3067;DHT22;1544;48.834;9.194;2023-02-13T07:51:03;1.50;50.70
3067;DHT22;1544;48.834;9.194;2023-02-13T07:53:38;1.60;50.70
3067;DHT22;1544;48.834;9.194;2023-02-13T07:56:13;1.60;50.80
3067;DHT22;1544;48.834;9.194;2023-02-13T07:58:48;1.70;51.20
3067;DHT22;1544;48.834;9.194;2023-02-13T08:01:23;1.70;51.90
3067;DHT22;1544;48.834;9.194;2023-02-13T08:03:58;1.80;52.60
3067;DHT22;1544;48.834;9.194;2023-02-13T08:06:33;1.80;53.00
3067;DHT22;1544;48.834;9.194;2023-02-13T08:09:17;1.90;53.60
3067;DHT22;1544;48.834;9.194;2023-02-13T08:12:14;2.00;53.80
3067;DHT22;1544;48.834;9.194;2023-02-13T08:14:49;2.10;54.40
3067;DHT22;1544;48.834;9.194;2023-02-13T08:17:24;2.10;54.90
3067;DHT22;1544;48.834;9.194;2023-02-13T08:19:59;2.20;55.30
3067;DHT22;1544;48.834;9.194;2023-02-13T08:22:38;2.30;55.50
3067;DHT22;1544;48.834;9.194;2023-02-13T08:25:13;2.40;56.00
3067;DHT22;1544;48.834;9.194;2023-02-13T08:27:47;2.50;56.10
3067;DHT22;1544;48.834;9.194;2023-02-13T08:30:22;2.50;56.40
3067;DHT22;1544;48.834;9.194;2023-02-13T08:32:57;2.60;56.50
3067;DHT22;1544;48.834;9.194;2023-02-13T08:35:32;2.70;56.50
3067;DHT22;1544;48.834;9.194;2023-02-13T08:38:08;2.80;56.50
3067;DHT22;1544;48.834;9.194;2023-02-13T08:40:43;2.90;56.40
3067;DHT22;1544;48.834;9.194;2023-02-13T08:43:18;3.00;56.60
3067;DHT22;1544;48.834;9.194;2023-02-13T08:45:53;3.00;56.50
3067;DHT22;1544;48.834;9.194;2023-02-13T08:48:28;3.10;56.60
3067;DHT22;1544;48.834;9.194;2023-02-13T08:51:08;3.20;56.40
3067;DHT22;1544;48.834;9.194;2023-02-13T08:53:44;3.20;56.20
3067;DHT22;1544;48.834;9.194;2023-02-13T08:56:19;3.30;56.00
3067;DHT22;1544;48.834;9.194;2023-02-13T08:58:54;3.40;55.80
3067;DHT22;1544;48.834;9.194;2023-02-13T09:01:28;3.50;56.30
3067;DHT22;1544;48.834;9.194;2023-02-13T09:04:03;3.50;56.30
3067;DHT22;1544;48.834;9.194;2023-02-13T09:06:38;3.60;56.20
3067;DHT22;1544;48.834;9.194;2023-02-13T09:09:13;3.70;55.90
3067;DHT22;1544;48.834;9.194;2023-02-13T09:11:49;3.80;55.90
3067;DHT22;1544;48.834;9.194;2023-02-13T09:14:26;3.80;55.70
3067;DHT22;1544;48.834;9.194;2023-02-13T09:17:01;3.90;55.00
3067;DHT22;1544;48.834;9.194;2023-02-13T09:19:36;4.00;54.50
3067;DHT22;1544;48.834;9.194;2023-02-13T09:22:11;4.10;54.20
3067;DHT22;1544;48.834;9.194;2023-02-13T09:24:46;4.20;53.90
3067;DHT22;1544;48.834;9.194;2023-02-13T09:27:21;4.20;53.60
3067;DHT22;1544;48.834;9.194;2023-02-13T09:29:56;4.30;53.50
3067;DHT22;1544;48.834;9.194;2023-02-13T09:32:30;4.40;53.40
3067;DHT22;1544;48.834;9.194;2023-02-13T09:35:05;4.50;53.40
3067;DHT22;1544;48.834;9.194;2023-02-13T09:37:40;4.60;53.20
3067;DHT22;1544;48.834;9.194;2023-02-13T09:40:26;4.70;53.00
3067;DHT22;1544;48.834;9.194;2023-02-13T09:46:33;4.80;53.00
3067;DHT22;1544;48.834;9.194;2023-02-13T09:49:17;4.90;52.60
3067;DHT22;1544;48.834;9.194;2023-02-13T09:51:55;5.00;52.00
3067;DHT22;1544;48.834;9.194;2023-02-13T09:54:31;5.10;51.50
3067;DHT22;1544;48.834;9.194;2023-02-13T09:57:26;5.20;50.90
3067;DHT22;1544;48.834;9.194;2023-02-13T10:00:11;5.30;50.60
3067;DHT22;1544;48.834;9.194;2023-02-13T10:06:00;5.50;49.50
3067;DHT22;1544;48.834;9.194;2023-02-13T10:08:57;5.50;49.10
3067;DHT22;1544;48.834;9.194;2023-02-13T10:12:07;5.60;48.80
3067;DHT22;1544;48.834;9.194;2023-02-13T10:15:13;5.70;48.40
3067;DHT22;1544;48.834;9.194;2023-02-13T10:18:09;5.90;47.90
3067;DHT22;1544;48.834;9.194;2023-02-13T10:20:50;6.00;47.30
3067;DHT22;1544;48.834;9.194;2023-02-13T10:23:45;6.10;46.70
3067;DHT22;1544;48.834;9.194;2023-02-13T10:26:36;6.20;46.20
3067;DHT22;1544;48.834;9.194;2023-02-13T10:29:24;6.30;45.70
3067;DHT22;1544;48.834;9.194;2023-02-13T10:35:28;6.60;45.20
3067;DHT22;1544;48.834;9.194;2023-02-13T10:38:14;6.70;44.80
3067;DHT22;1544;48.834;9.194;2023-02-13T10:41:04;6.90;44.20
3067;DHT22;1544;48.834;9.194;2023-02-13T10:47:30;7.30;41.90
3067;DHT22;1544;48.834;9.194;2023-02-13T10:50:35;7.60;41.70
3067;DHT22;1544;48.834;9.194;2023-02-13T11:02:14;8.90;39.10
3067;DHT22;1544;48.834;9.194;2023-02-13T11:07:52;9.50;37.00
3067;DHT22;1544;48.834;9.194;2023-02-13T11:10:27;9.90;36.60
3067;DHT22;1544;48.834;9.194;2023-02-13T11:13:19;10.20;35.20
3067;DHT22;1544;48.834;9.194;2023-02-13T11:16:07;10.50;34.70
3067;DHT22;1544;48.834;9.194;2023-02-13T11:18:48;10.90;34.40
3067;DHT22;1544;48.834;9.194;2023-02-13T11:21:32;11.10;33.50
3067;DHT22;1544;48.834;9.194;2023-02-13T11:24:20;11.40;33.10
3067;DHT22;1544;48.834;9.194;2023-02-13T11:27:03;11.60;32.70
3067;DHT22;1544;48.834;9.194;2023-02-13T11:29:56;11.80;32.30
3067;DHT22;1544;48.834;9.194;2023-02-13T11:32:34;11.90;32.00
3067;DHT22;1544;48.834;9.194;2023-02-13T11:35:26;12.10;31.80
3067;DHT22;1544;48.834;9.194;2023-02-13T11:41:02;12.40;30.90
3067;DHT22;1544;48.834;9.194;2023-02-13T11:43:46;12.60;30.70
3067;DHT22;1544;48.834;9.194;2023-02-13T11:46:26;12.70;30.30
3067;DHT22;1544;48.834;9.194;2023-02-13T11:49:04;12.70;30.00
3067;DHT22;1544;48.834;9.194;2023-02-13T11:51:48;12.80;30.10
3067;DHT22;1544;48.834;9.194;2023-02-13T11:54:37;12.80;30.00
3067;DHT22;1544;48.834;9.194;2023-02-13T11:57:22;12.80;29.60
3067;DHT22;1544;48.834;9.194;2023-02-13T12:00:39;12.80;30.00
3067;DHT22;1544;48.834;9.194;2023-02-13T12:03:26;12.70;29.60
3067;DHT22;1544;48.834;9.194;2023-02-13T12:06:12;12.70;30.10
3067;DHT22;1544;48.834;9.194;2023-02-13T12:08:49;12.80;30.60
3067;DHT22;1544;48.834;9.194;2023-02-13T12:14:26;13.10;31.20
3067;DHT22;1544;48.834;9.194;2023-02-13T12:17:06;13.20;30.40
3067;DHT22;1544;48.834;9.194;2023-02-13T12:19:52;13.40;30.10
3067;DHT22;1544;48.834;9.194;2023-02-13T12:22:38;13.50;30.70
3067;DHT22;1544;48.834;9.194;2023-02-13T12:25:33;13.70;30.20
3067;DHT22;1544;48.834;9.194;2023-02-13T12:41:36;14.80;31.70
3067;DHT22;1544;48.834;9.194;2023-02-13T12:56:50;15.80;29.30
3067;DHT22;1544;48.834;9.194;2023-02-13T13:03:55;16.10;29.60
3067;DHT22;1544;48.834;9.194;2023-02-13T13:18:34;16.80;29.00
3067;DHT22;1544;48.834;9.194;2023-02-13T13:21:50;17.00;28.70
3067;DHT22;1544;48.834;9.194;2023-02-13T13:28:03;17.00;28.10
3067;DHT22;1544;48.834;9.194;2023-02-13T13:30:43;17.20;29.30
3067;DHT22;1544;48.834;9.194;2023-02-13T13:33:21;17.40;28.90
3067;DHT22;1544;48.834;9.194;2023-02-13T13:42:18;17.80;28.10
3067;DHT22;1544;48.834;9.194;2023-02-13T13:48:15;18.00;28.50
3067;DHT22;1544;48.834;9.194;2023-02-13T13:51:00;18.10;28.40
3067;DHT22;1544;48.834;9.194;2023-02-13T13:53:35;18.30;28.80
3067;DHT22;1544;48.834;9.194;2023-02-13T14:05:30;18.50;26.50
3067;DHT22;1544;48.834;9.194;2023-02-13T14:11:32;18.60;26.90
3067;DHT22;1544;48.834;9.194;2023-02-13T14:17:02;18.70;27.10
3067;DHT22;1544;48.834;9.194;2023-02-13T14:19:39;18.70;26.90
3067;DHT22;1544;48.834;9.194;2023-02-13T14:22:24;18.80;27.30
3067;DHT22;1544;48.834;9.194;2023-02-13T14:25:06;18.90;27.50
3067;DHT22;1544;48.834;9.194;2023-02-13T14:28:03;19.00;27.60
3067;DHT22;1544;48.834;9.194;2023-02-13T14:30:39;19.10;27.80
3067;DHT22;1544;48.834;9.194;2023-02-13T14:33:29;19.10;27.50
3067;DHT22;1544;48.834;9.194;2023-02-13T14:36:20;19.20;26.90
3067;DHT22;1544;48.834;9.194;2023-02-13T14:39:06;19.10;26.40
3067;DHT22;1544;48.834;9.194;2023-02-13T14:44:43;19.10;27.00
3067;DHT22;1544;48.834;9.194;2023-02-13T14:47:37;19.10;27.20
3067;DHT22;1544;48.834;9.194;2023-02-13T14:50:25;19.10;27.30
3067;DHT22;1544;48.834;9.194;2023-02-13T14:53:37;19.20;27.00
3067;DHT22;1544;48.834;9.194;2023-02-13T14:56:25;19.30;27.40
3067;DHT22;1544;48.834;9.194;2023-02-13T14:59:09;19.30;27.10
3067;DHT22;1544;48.834;9.194;2023-02-13T15:01:48;19.20;27.20
3067;DHT22;1544;48.834;9.194;2023-02-13T15:04:44;19.20;27.20
3067;DHT22;1544;48.834;9.194;2023-02-13T15:07:33;19.10;27.10
3067;DHT22;1544;48.834;9.194;2023-02-13T15:10:28;19.10;27.20
3067;DHT22;1544;48.834;9.194;2023-02-13T15:13:19;19.00;27.10
3067;DHT22;1544;48.834;9.194;2023-02-13T15:16:02;18.80;27.80
3067;DHT22;1544;48.834;9.194;2023-02-13T15:18:43;18.80;27.20
3067;DHT22;1544;48.834;9.194;2023-02-13T15:21:21;18.80;27.70
3067;DHT22;1544;48.834;9.194;2023-02-13T15:23:57;18.70;27.40
3067;DHT22;1544;48.834;9.194;2023-02-13T15:26:33;18.70;26.80
3067;DHT22;1544;48.834;9.194;2023-02-13T15:29:17;18.60;26.60
3067;DHT22;1544;48.834;9.194;2023-02-13T15:32:18;18.50;27.10
3067;DHT22;1544;48.834;9.194;2023-02-13T15:34:54;18.40;26.90
3067;DHT22;1544;48.834;9.194;2023-02-13T15:37:29;18.30;26.20
3067;DHT22;1544;48.834;9.194;2023-02-13T15:40:23;18.20;27.10
3067;DHT22;1544;48.834;9.194;2023-02-13T15:43:02;18.00;26.80
3067;DHT22;1544;48.834;9.194;2023-02-13T15:45:42;17.80;26.80
3067;DHT22;1544;48.834;9.194;2023-02-13T15:48:17;17.80;27.00
3067;DHT22;1544;48.834;9.194;2023-02-13T15:50:52;17.60;26.80
3067;DHT22;1544;48.834;9.194;2023-02-13T15:53:27;17.50;26.80
3067;DHT22;1544;48.834;9.194;2023-02-13T15:56:04;17.40;27.00
3067;DHT22;1544;48.834;9.194;2023-02-13T15:58:39;17.30;27.10
3067;DHT22;1544;48.834;9.194;2023-02-13T16:01:15;17.10;27.00
3067;DHT22;1544;48.834;9.194;2023-02-13T16:03:59;17.00;26.80
3067;DHT22;1544;48.834;9.194;2023-02-13T16:06:37;16.60;26.60
3067;DHT22;1544;48.834;9.194;2023-02-13T16:09:23;16.40;26.90
3067;DHT22;1544;48.834;9.194;2023-02-13T16:12:18;16.00;27.10
3067;DHT22;1544;48.834;9.194;2023-02-13T16:15:04;15.70;27.00
3067;DHT22;1544;48.834;9.194;2023-02-13T16:17:43;15.40;27.40
3067;DHT22;1544;48.834;9.194;2023-02-13T16:20:22;15.10;27.30
3067;DHT22;1544;48.834;9.194;2023-02-13T16:23:06;14.80;27.70
3067;DHT22;1544;48.834;9.194;2023-02-13T16:25:49;14.50;27.80
3067;DHT22;1544;48.834;9.194;2023-02-13T16:28:25;14.20;27.70
3067;DHT22;1544;48.834;9.194;2023-02-13T16:31:03;13.90;27.80
3067;DHT22;1544;48.834;9.194;2023-02-13T16:33:39;13.70;27.90
3067;DHT22;1544;48.834;9.194;2023-02-13T16:36:26;13.50;28.10
3067;DHT22;1544;48.834;9.194;2023-02-13T16:42:14;12.90;28.20
3067;DHT22;1544;48.834;9.194;2023-02-13T16:45:19;12.70;28.60
3067;DHT22;1544;48.834;9.194;2023-02-13T16:47:59;12.40;28.70
3067;DHT22;1544;48.834;9.194;2023-02-13T16:50:37;12.20;28.80
3067;DHT22;1544;48.834;9.194;2023-02-13T16:53:15;12.00;29.00
3067;DHT22;1544;48.834;9.194;2023-02-13T16:56:00;11.90;29.20
3067;DHT22;1544;48.834;9.194;2023-02-13T16:58:36;11.70;29.20
3067;DHT22;1544;48.834;9.194;2023-02-13T17:01:14;11.60;29.30
3067;DHT22;1544;48.834;9.194;2023-02-13T17:03:52;11.40;29.30
3067;DHT22;1544;48.834;9.194;2023-02-13T17:06:27;11.30;29.40
3067;DHT22;1544;48.834;9.194;2023-02-13T17:09:03;11.20;29.40
3067;DHT22;1544;48.834;9.194;2023-02-13T17:11:38;11.10;29.40
3067;DHT22;1544;48.834;9.194;2023-02-13T17:14:13;10.90;29.40
3067;DHT22;1544;48.834;9.194;2023-02-13T17:16:48;10.80;29.60
3067;DHT22;1544;48.834;9.194;2023-02-13T17:19:23;10.80;29.60
3067;DHT22;1544;48.834;9.194;2023-02-13T17:21:58;10.50;29.60
3067;DHT22;1544;48.834;9.194;2023-02-13T17:24:33;10.40;29.70
3067;DHT22;1544;48.834;9.194;2023-02-13T17:27:09;10.20;29.80
3067;DHT22;1544;48.834;9.194;2023-02-13T17:29:45;10.10;29.80
3067;DHT22;1544;48.834;9.194;2023-02-13T17:32:22;10.00;29.80
3067;DHT22;1544;48.834;9.194;2023-02-13T17:34:58;9.80;30.60
3067;DHT22;1544;48.834;9.194;2023-02-13T17:37:35;9.70;31.10
3067;DHT22;1544;48.834;9.194;2023-02-13T17:40:16;9.60;30.90
3067;DHT22;1544;48.834;9.194;2023-02-13T17:42:53;9.50;31.00
3067;DHT22;1544;48.834;9.194;2023-02-13T17:45:32;9.40;31.00
3067;DHT22;1544;48.834;9.194;2023-02-13T17:48:08;9.30;31.10
3067;DHT22;1544;48.834;9.194;2023-02-13T17:50:43;9.20;31.10
3067;DHT22;1544;48.834;9.194;2023-02-13T17:53:24;9.00;31.10
3067;DHT22;1544;48.834;9.194;2023-02-13T17:56:00;8.90;31.30
3067;DHT22;1544;48.834;9.194;2023-02-13T17:58:35;8.70;31.40
3067;DHT22;1544;48.834;9.194;2023-02-13T18:01:11;8.60;31.50
3067;DHT22;1544;48.834;9.194;2023-02-13T18:03:48;8.50;31.70
3067;DHT22;1544;48.834;9.194;2023-02-13T18:06:23;8.40;31.80
3067;DHT22;1544;48.834;9.194;2023-02-13T18:08:58;8.20;31.90
3067;DHT22;1544;48.834;9.194;2023-02-13T18:11:33;8.10;32.00
3067;DHT22;1544;48.834;9.194;2023-02-13T18:14:08;8.00;32.00
3067;DHT22;1544;48.834;9.194;2023-02-13T18:16:43;7.90;32.10
3067;DHT22;1544;48.834;9.194;2023-02-13T18:19:18;7.80;32.30
3067;DHT22;1544;48.834;9.194;2023-02-13T18:21:53;7.70;32.30
3067;DHT22;1544;48.834;9.194;2023-02-13T18:24:30;7.60;32.40
3067;DHT22;1544;48.834;9.194;2023-02-13T18:27:07;7.60;32.50
3067;DHT22;1544;48.834;9.194;2023-02-13T18:29:44;7.50;32.60
3067;DHT22;1544;48.834;9.194;2023-02-13T18:32:20;7.40;32.70
3067;DHT22;1544;48.834;9.194;2023-02-13T18:34:55;7.40;32.80
3067;DHT22;1544;48.834;9.194;2023-02-13T18:37:30;7.30;32.80
3067;DHT22;1544;48.834;9.194;2023-02-13T18:40:07;7.20;32.90
3067;DHT22;1544;48.834;9.194;2023-02-13T18:42:43;7.20;33.00
3067;DHT22;1544;48.834;9.194;2023-02-13T18:45:18;7.20;33.10
3067;DHT22;1544;48.834;9.194;2023-02-13T18:47:53;7.10;33.10
3067;DHT22;1544;48.834;9.194;2023-02-13T18:50:28;7.00;33.10
3067;DHT22;1544;48.834;9.194;2023-02-13T18:53:03;6.90;33.20
3067;DHT22;1544;48.834;9.194;2023-02-13T18:55:38;6.90;33.40
3067;DHT22;1544;48.834;9.194;2023-02-13T18:58:13;6.80;33.50
3067;DHT22;1544;48.834;9.194;2023-02-13T19:00:48;6.70;33.60
3067;DHT22;1544;48.834;9.194;2023-02-13T19:03:23;6.60;33.80
3067;DHT22;1544;48.834;9.194;2023-02-13T19:06:03;6.50;33.90
3067;DHT22;1544;48.834;9.194;2023-02-13T19:08:42;6.50;34.00
3067;DHT22;1544;48.834;9.194;2023-02-13T19:11:19;6.40;34.10
3067;DHT22;1544;48.834;9.194;2023-02-13T19:13:58;6.30;34.20
3067;DHT22;1544;48.834;9.194;2023-02-13T19:16:38;6.20;34.40
3067;DHT22;1544;48.834;9.194;2023-02-13T19:19:28;6.10;34.50
3067;DHT22;1544;48.834;9.194;2023-02-13T19:22:03;6.10;34.60
3067;DHT22;1544;48.834;9.194;2023-02-13T19:24:39;6.10;34.70
3067;DHT22;1544;48.834;9.194;2023-02-13T19:27:15;6.00;34.70
3067;DHT22;1544;48.834;9.194;2023-02-13T19:29:51;6.00;34.80
3067;DHT22;1544;48.834;9.194;2023-02-13T19:32:26;6.00;34.90
3067;DHT22;1544;48.834;9.194;2023-02-13T19:35:01;5.90;34.90
3067;DHT22;1544;48.834;9.194;2023-02-13T19:37:36;5.90;34.90
3067;DHT22;1544;48.834;9.194;2023-02-13T19:40:19;5.80;35.00
3067;DHT22;1544;48.834;9.194;2023-02-13T19:42:54;5.80;35.10
3067;DHT22;1544;48.834;9.194;2023-02-13T19:45:29;5.70;35.30
3067;DHT22;1544;48.834;9.194;2023-02-13T19:48:04;5.60;35.40
3067;DHT22;1544;48.834;9.194;2023-02-13T19:50:39;5.60;35.60
3067;DHT22;1544;48.834;9.194;2023-02-13T19:53:15;5.50;35.60
3067;DHT22;1544;48.834;9.194;2023-02-13T19:55:57;5.40;35.70
3067;DHT22;1544;48.834;9.194;2023-02-13T19:58:36;5.40;35.90
3067;DHT22;1544;48.834;9.194;2023-02-13T20:01:14;5.30;36.00
3067;DHT22;1544;48.834;9.194;2023-02-13T20:03:52;5.20;36.10